Time;durP1;ratioP1;P1;durP2;ratioP2;P2;SDS_P1;SDS_P2;PMS_P1;PMS_P2;Temp;Humidity;BMP_temperature;BMP_pressure;BME280_temperature;BME280_humidity;BME280_pressure;Samples;Min_cycle;Max_cycle;Signal;HPM_P1;HPM_P2
2023/04/29 04:30:59;;;;;;;7.80;4.22;;;14.50;75.50;;;;;;5600945;23;20082;-84
2023/04/29 04:33:26;;;;;;;6.55;3.63;;;14.50;75.40;;;;;;4918232;29;20391;-84
2023/04/29 04:35:51;;;;;;;8.88;5.03;;;14.50;75.30;;;;;;4931153;29;20047;-85
2023/04/29 04:38:17;;;;;;;7.85;3.97;;;14.50;75.40;;;;;;4917932;29;20408;-84
2023/04/29 04:40:43;;;;;;;8.27;3.95;;;14.50;75.20;;;;;;4919889;29;20035;-84
2023/04/29 04:43:09;;;;;;;5.28;3.58;;;14.60;75.00;;;;;;4919601;29;20087;-84
2023/04/29 04:45:35;;;;;;;6.30;3.83;;;14.60;75.10;;;;;;4919269;29;20028;-84
2023/04/29 04:48:01;;;;;;;7.55;4.00;;;14.60;75.10;;;;;;4902290;29;20468;-84
2023/04/29 04:50:28;;;;;;;5.68;3.75;;;14.60;75.00;;;;;;4902443;29;20028;-84
2023/04/29 04:52:57;;;;;;;8.05;3.70;;;14.70;74.90;;;;;;4902708;29;20411;-84
2023/04/29 04:55:23;;;;;;;9.02;4.30;;;14.60;74.90;;;;;;4902028;29;20024;-84
2023/04/29 04:57:49;;;;;;;9.43;4.30;;;14.60;75.00;;;;;;4918364;29;20036;-84
2023/04/29 05:00:15;;;;;;;4.85;2.95;;;14.60;75.00;;;;;;4908748;29;20031;-84
2023/04/29 05:02:40;;;;;;;7.10;4.07;;;14.60;75.10;;;;;;4932341;29;20103;-85
2023/04/29 05:05:06;;;;;;;6.43;3.42;;;14.50;75.10;;;;;;4931705;29;20079;-84
2023/04/29 05:07:34;;;;;;;7.35;3.72;;;14.50;75.20;;;;;;4921109;29;20036;-85
2023/04/29 05:10:01;;;;;;;5.13;3.22;;;14.60;75.20;;;;;;4921455;29;20023;-85
2023/04/29 05:12:29;;;;;;;5.75;3.85;;;14.50;75.30;;;;;;4936437;29;20024;-85
2023/04/29 05:14:56;;;;;;;7.03;3.70;;;14.60;75.20;;;;;;4902576;29;20479;-84
2023/04/29 05:17:21;;;;;;;5.65;3.75;;;14.50;75.10;;;;;;4919208;29;20086;-84
2023/04/29 05:19:47;;;;;;;7.10;3.97;;;14.50;75.10;;;;;;4920561;29;20487;-84
2023/04/29 05:22:13;;;;;;;7.20;4.43;;;14.50;75.00;;;;;;4938570;29;20523;-85
2023/04/29 05:24:38;;;;;;;7.50;4.13;;;14.50;75.10;;;;;;4921135;29;20438;-84
2023/04/29 05:27:04;;;;;;;8.82;3.78;;;14.50;75.20;;;;;;4935649;29;20086;-84
2023/04/29 05:29:30;;;;;;;8.00;4.45;;;14.50;75.20;;;;;;4911935;29;20029;-84
2023/04/29 05:31:56;;;;;;;8.18;4.38;;;14.50;74.90;;;;;;4906995;29;20519;-84
2023/04/29 05:34:22;;;;;;;9.13;4.82;;;14.60;75.10;;;;;;4935002;29;20514;-84
2023/04/29 05:36:47;;;;;;;11.05;4.32;;;14.50;74.90;;;;;;4921310;29;20032;-84
2023/04/29 05:39:13;;;;;;;8.70;4.78;;;14.50;75.20;;;;;;4920895;29;20410;-84
2023/04/29 05:41:39;;;;;;;12.88;7.88;;;14.50;75.20;;;;;;4938491;29;20083;-84
2023/04/29 05:44:05;;;;;;;11.95;8.20;;;14.50;75.30;;;;;;4938449;29;20020;-84
2023/04/29 05:46:30;;;;;;;14.70;8.23;;;14.50;75.30;;;;;;4937845;29;20070;-85
2023/04/29 05:48:56;;;;;;;14.95;7.95;;;14.50;75.50;;;;;;4928718;29;20028;-84
2023/04/29 05:51:22;;;;;;;15.82;8.95;;;14.50;75.60;;;;;;4923013;29;20032;-84
2023/04/29 05:53:47;;;;;;;11.30;6.20;;;14.50;75.40;;;;;;4922801;29;20103;-84
2023/04/29 05:56:13;;;;;;;10.15;6.10;;;14.50;75.40;;;;;;4921573;29;20073;-84
2023/04/29 05:58:38;;;;;;;12.45;7.25;;;14.50;75.30;;;;;;4923043;29;20044;-84
2023/04/29 06:01:04;;;;;;;12.50;6.60;;;14.60;75.30;;;;;;4905919;29;20043;-84
2023/04/29 06:03:30;;;;;;;8.52;5.57;;;14.50;75.60;;;;;;4910237;29;20046;-84
2023/04/29 06:05:56;;;;;;;9.60;6.60;;;14.60;75.50;;;;;;4924618;29;20036;-84
2023/04/29 06:08:21;;;;;;;10.15;6.07;;;14.60;75.30;;;;;;4922730;29;20062;-82
2023/04/29 06:10:47;;;;;;;12.50;5.43;;;14.60;75.20;;;;;;4929754;29;20034;-79
2023/04/29 06:13:12;;;;;;;10.27;5.57;;;14.60;75.30;;;;;;4920665;29;20107;-82
2023/04/29 06:15:38;;;;;;;9.85;5.03;;;14.60;75.20;;;;;;4922618;29;20036;-85
2023/04/29 06:18:04;;;;;;;10.25;5.40;;;14.70;75.10;;;;;;4921496;29;20044;-83
2023/04/29 06:20:29;;;;;;;8.75;4.97;;;14.70;74.90;;;;;;4922206;29;20091;-83
2023/04/29 06:22:55;;;;;;;8.68;4.43;;;14.70;75.10;;;;;;4922506;29;20055;-83
2023/04/29 06:25:21;;;;;;;7.38;5.10;;;14.70;74.80;;;;;;4922445;29;20032;-83
2023/04/29 06:27:48;;;;;;;9.88;4.93;;;14.80;74.80;;;;;;4922218;29;20086;-84
2023/04/29 06:30:13;;;;;;;7.68;4.25;;;14.80;74.90;;;;;;4905306;29;20594;-84
2023/04/29 06:32:39;;;;;;;7.15;4.38;;;14.80;75.00;;;;;;4924554;29;20032;-85
2023/04/29 06:35:05;;;;;;;6.97;3.97;;;14.80;75.00;;;;;;4939382;29;20036;-87
2023/04/29 06:37:31;;;;;;;8.80;5.25;;;14.80;74.90;;;;;;4923000;29;20020;-87
2023/04/29 06:39:57;;;;;;;7.95;4.45;;;14.80;74.80;;;;;;4904993;29;20501;-83
2023/04/29 06:42:22;;;;;;;7.43;4.18;;;14.90;74.80;;;;;;4922338;29;20123;-82
2023/04/29 06:44:48;;;;;;;9.65;4.45;;;14.90;74.80;;;;;;4921738;29;20028;-82
2023/04/29 06:47:14;;;;;;;9.27;4.47;;;14.80;74.70;;;;;;4904915;29;20067;-84
2023/04/29 06:49:42;;;;;;;8.40;5.20;;;14.90;74.80;;;;;;4926760;29;20032;-84
2023/04/29 06:52:09;;;;;;;8.25;4.88;;;14.80;74.70;;;;;;4927057;29;20021;-82
2023/04/29 06:54:35;;;;;;;9.20;5.25;;;14.90;74.60;;;;;;4922176;29;20063;-83
2023/04/29 06:57:01;;;;;;;7.97;4.80;;;14.80;74.70;;;;;;4904886;29;20444;-85
2023/04/29 06:59:26;;;;;;;8.85;5.25;;;14.90;74.60;;;;;;4920779;29;20043;-84
2023/04/29 07:01:55;;;;;;;7.60;4.63;;;14.90;74.50;;;;;;4936983;29;20027;-81
2023/04/29 07:04:21;;;;;;;10.10;5.18;;;14.90;74.40;;;;;;4942350;29;20478;-86
2023/04/29 07:06:47;;;;;;;8.13;4.97;;;14.90;74.40;;;;;;4941245;29;20028;-87
2023/04/29 07:09:13;;;;;;;7.80;4.70;;;14.90;74.40;;;;;;4917207;29;20040;-86
2023/04/29 07:11:39;;;;;;;7.28;4.50;;;14.90;74.40;;;;;;4934336;29;20055;-88
2023/04/29 07:14:06;;;;;;;7.93;4.43;;;14.90;74.60;;;;;;4923880;29;20036;-88
2023/04/29 07:16:32;;;;;;;8.52;5.28;;;15.00;74.80;;;;;;4924312;29;20115;-91
2023/04/29 07:18:57;;;;;;;8.35;4.93;;;15.00;74.50;;;;;;4923527;29;20059;-92
2023/04/29 07:21:23;;;;;;;8.70;5.05;;;15.00;74.70;;;;;;4924755;29;20054;-93
2023/04/29 07:23:49;;;;;;;9.27;5.22;;;15.00;74.70;;;;;;4923231;29;20028;-91
2023/04/29 07:26:16;;;;;;;9.25;5.55;;;15.10;74.30;;;;;;4924647;29;20059;-91
2023/04/29 07:28:42;;;;;;;9.38;5.88;;;15.10;74.60;;;;;;4917848;29;20024;-92
2023/04/29 07:31:08;;;;;;;9.95;5.63;;;15.10;74.40;;;;;;4905739;29;20040;-87
2023/04/29 07:33:34;;;;;;;13.10;6.07;;;15.10;74.50;;;;;;4931957;29;20039;-90
2023/04/29 07:36:01;;;;;;;11.23;4.72;;;15.10;74.30;;;;;;4924822;29;20479;-92
2023/04/29 07:38:27;;;;;;;7.57;4.28;;;15.10;74.60;;;;;;4924580;29;20040;-86
2023/04/29 07:40:53;;;;;;;8.07;5.00;;;15.20;74.50;;;;;;4921893;29;20028;-89
2023/04/29 07:43:19;;;;;;;8.50;5.20;;;15.20;74.30;;;;;;4939200;29;20384;-88
2023/04/29 07:45:44;;;;;;;11.60;7.25;;;15.20;74.30;;;;;;4922296;29;20035;-88
2023/04/29 07:48:10;;;;;;;11.68;7.25;;;15.20;74.60;;;;;;4904021;29;20739;-88
2023/04/29 07:50:36;;;;;;;10.15;6.35;;;15.20;74.50;;;;;;4903843;29;20091;-88
2023/04/29 07:53:03;;;;;;;10.32;5.88;;;15.20;74.30;;;;;;4904242;29;20032;-88
2023/04/29 07:55:31;;;;;;;9.20;5.18;;;15.20;74.40;;;;;;4918594;29;20122;-88
2023/04/29 07:57:57;;;;;;;11.57;5.90;;;15.20;74.60;;;;;;4921671;29;20114;-89
2023/04/29 08:00:24;;;;;;;10.90;5.38;;;15.20;74.30;;;;;;4919525;29;20511;-88
2023/04/29 08:02:53;;;;;;;9.85;5.78;;;15.20;74.30;;;;;;4914090;29;20031;-88
2023/04/29 08:05:22;;;;;;;8.80;5.70;;;15.20;74.50;;;;;;4922898;29;20028;-88
2023/04/29 08:07:48;;;;;;;8.07;5.03;;;15.20;74.40;;;;;;4922074;29;20059;-88
2023/04/29 08:10:15;;;;;;;9.20;6.07;;;15.20;74.30;;;;;;4922420;29;20039;-88
2023/04/29 08:12:41;;;;;;;7.82;4.93;;;15.20;74.50;;;;;;4922125;29;20032;-88
2023/04/29 08:15:07;;;;;;;7.53;4.78;;;15.30;74.20;;;;;;4921413;29;20023;-88
2023/04/29 08:17:33;;;;;;;10.20;5.57;;;15.40;74.10;;;;;;4920501;29;20483;-88
2023/04/29 08:19:58;;;;;;;10.48;5.82;;;15.40;73.90;;;;;;4942624;29;20024;-88
2023/04/29 08:22:24;;;;;;;8.27;4.70;;;15.40;73.70;;;;;;4941471;29;20034;-88
2023/04/29 08:24:50;;;;;;;9.63;5.40;;;15.40;73.60;;;;;;4929481;29;20024;-88
2023/04/29 08:27:15;;;;;;;8.65;5.18;;;15.40;73.90;;;;;;4921913;29;20083;-88
2023/04/29 08:29:42;;;;;;;8.30;4.53;;;15.50;73.70;;;;;;4939307;29;20042;-88
2023/04/29 08:32:07;;;;;;;10.18;5.75;;;15.50;73.60;;;;;;4918168;29;20052;-88
2023/04/29 08:34:35;;;;;;;7.22;4.78;;;15.60;73.40;;;;;;4919592;29;20030;-89
2023/04/29 08:37:02;;;;;;;5.68;4.32;;;15.50;73.10;;;;;;4918790;29;20479;-88
2023/04/29 08:39:29;;;;;;;9.93;5.82;;;15.60;73.20;;;;;;4903522;29;20400;-88
2023/04/29 08:41:59;;;;;;;7.07;4.43;;;15.70;73.30;;;;;;4920283;29;20059;-88
2023/04/29 08:44:26;;;;;;;7.27;4.43;;;15.70;73.20;;;;;;4903011;29;20036;-88
2023/04/29 08:46:51;;;;;;;8.48;4.25;;;15.80;73.00;;;;;;4932335;29;20034;-88
2023/04/29 08:49:17;;;;;;;9.02;4.93;;;15.80;73.00;;;;;;4902818;29;20032;-88
2023/04/29 08:51:44;;;;;;;9.00;4.90;;;15.80;73.00;;;;;;4919564;29;20111;-89
2023/04/29 08:54:10;;;;;;;8.45;4.85;;;15.80;73.00;;;;;;4903123;29;20087;-88
2023/04/29 08:56:36;;;;;;;8.95;5.43;;;15.80;72.70;;;;;;4902645;29;20036;-88
2023/04/29 08:59:03;;;;;;;8.50;5.10;;;15.80;72.80;;;;;;4919477;29;20028;-88
2023/04/29 09:01:29;;;;;;;8.90;4.93;;;15.80;72.60;;;;;;4913910;29;20059;-88
2023/04/29 09:04:32;;;;;;;8.15;4.85;;;15.90;72.60;;;;;;4921251;29;20032;-87
2023/04/29 09:06:58;;;;;;;8.50;5.65;;;16.00;72.40;;;;;;4938363;29;20027;-89
2023/04/29 09:09:24;;;;;;;7.30;4.70;;;16.20;72.10;;;;;;4928959;29;20032;-88
2023/04/29 09:11:51;;;;;;;6.15;4.38;;;16.30;71.90;;;;;;4929663;29;20031;-79
2023/04/29 09:14:18;;;;;;;8.30;4.40;;;16.30;71.50;;;;;;4919708;29;20039;-90
2023/04/29 09:16:53;;;;;;;7.63;4.70;;;16.40;71.40;;;;;;4928706;29;20042;-85
2023/04/29 09:19:45;;;;;;;11.73;5.15;;;16.30;71.30;;;;;;4920996;29;20095;-88
2023/04/29 09:22:10;;;;;;;5.85;4.13;;;16.40;71.20;;;;;;4916406;29;20518;-82
2023/04/29 09:24:37;;;;;;;7.15;4.43;;;16.50;70.70;;;;;;4934212;29;20032;-82
2023/04/29 09:27:03;;;;;;;7.47;4.57;;;16.60;70.40;;;;;;4915881;29;20051;-82
2023/04/29 09:29:30;;;;;;;6.68;4.18;;;16.70;69.90;;;;;;4921077;29;20028;-82
2023/04/29 09:32:04;;;;;;;9.98;6.70;;;16.70;69.90;;;;;;4917314;29;20056;-82
2023/04/29 09:34:32;;;;;;;7.75;5.25;;;16.80;69.90;;;;;;4907087;29;20038;-83
2023/04/29 09:36:58;;;;;;;6.78;4.22;;;16.80;69.60;;;;;;4921122;29;20031;-82
2023/04/29 09:39:24;;;;;;;8.75;5.05;;;16.80;69.70;;;;;;4930817;29;20482;-83
2023/04/29 09:41:52;;;;;;;6.93;4.50;;;16.90;69.30;;;;;;4938758;29;20953;-84
2023/04/29 09:44:21;;;;;;;7.75;4.60;;;17.00;69.30;;;;;;4915786;29;20491;-83
2023/04/29 09:47:06;;;;;;;8.48;4.88;;;17.10;69.40;;;;;;4937630;29;20052;-83
2023/04/29 09:49:37;;;;;;;8.38;4.90;;;17.10;69.30;;;;;;4916920;29;20084;-82
2023/04/29 09:52:04;;;;;;;7.82;4.50;;;17.10;69.20;;;;;;4940993;29;20047;-83
2023/04/29 09:54:32;;;;;;;6.47;4.18;;;17.20;69.20;;;;;;4920010;29;20123;-83
2023/04/29 09:56:59;;;;;;;5.45;3.88;;;17.20;69.20;;;;;;4920854;29;20034;-82
2023/04/29 09:59:25;;;;;;;7.78;4.38;;;17.20;69.00;;;;;;4920822;29;20123;-83
2023/04/29 10:01:53;;;;;;;7.90;4.68;;;17.30;68.90;;;;;;4919491;29;20064;-82
2023/04/29 10:04:22;;;;;;;7.85;4.07;;;17.50;68.70;;;;;;4920509;29;20036;-82
2023/04/29 10:06:50;;;;;;;7.95;4.20;;;17.50;68.40;;;;;;4916559;29;20127;-82
2023/04/29 10:09:17;;;;;;;7.43;4.97;;;17.60;68.60;;;;;;4919501;29;20063;-82
2023/04/29 10:11:48;;;;;;;8.18;4.75;;;17.70;68.30;;;;;;4912852;29;20099;-82
2023/04/29 10:14:25;;;;;;;8.38;5.13;;;17.80;68.10;;;;;;4901914;29;20035;-83
2023/04/29 10:17:01;;;;;;;8.32;5.10;;;18.00;67.60;;;;;;4906135;29;20121;-82
2023/04/29 10:20:04;;;;;;;9.52;4.60;;;18.10;67.20;;;;;;4915394;29;20119;-88
2023/04/29 10:22:49;;;;;;;7.78;4.13;;;18.20;66.70;;;;;;4905735;29;20039;-82
2023/04/29 10:25:17;;;;;;;10.05;4.55;;;18.30;66.30;;;;;;4938209;29;20028;-81
2023/04/29 10:27:43;;;;;;;6.95;4.80;;;18.30;66.40;;;;;;4939316;29;20032;-80
2023/04/29 10:30:17;;;;;;;7.00;4.78;;;18.50;65.90;;;;;;4920000;29;20036;-82
2023/04/29 10:32:44;;;;;;;7.57;3.97;;;18.80;64.40;;;;;;4918872;29;20474;-81
2023/04/29 10:35:13;;;;;;;6.03;3.88;;;19.20;64.30;;;;;;4919880;29;20028;-80
2023/04/29 10:37:44;;;;;;;6.47;4.63;;;19.40;63.50;;;;;;4940727;29;20063;-83
2023/04/29 10:40:32;;;;;;;6.32;5.07;;;19.60;63.10;;;;;;4923509;29;20042;-84
2023/04/29 10:42:58;;;;;;;7.72;4.22;;;19.80;62.10;;;;;;4939488;29;20027;-78
2023/04/29 10:45:34;;;;;;;6.47;4.00;;;20.00;61.40;;;;;;4939978;29;20391;-81
2023/04/29 10:48:05;;;;;;;7.60;3.58;;;20.10;61.40;;;;;;4920935;29;20028;-88
2023/04/29 10:50:32;;;;;;;6.47;4.32;;;20.10;61.70;;;;;;4928568;29;20048;-85
2023/04/29 10:53:02;;;;;;;5.45;3.65;;;20.10;61.20;;;;;;4942180;29;20028;-88
2023/04/29 10:55:28;;;;;;;4.90;3.47;;;20.00;61.20;;;;;;4925895;29;20111;-83
2023/04/29 10:57:57;;;;;;;5.88;4.47;;;20.10;60.40;;;;;;4922501;29;20032;-86
2023/04/29 11:00:27;;;;;;;5.38;4.22;;;19.90;59.90;;;;;;4921790;29;20084;-91
2023/04/29 11:02:53;;;;;;;;;;;20.00;61.10;;;;;;4905649;29;20036;-88
2023/04/29 11:05:30;;;;;;;5.43;4.28;;;19.80;60.20;;;;;;4940113;29;19910;-84
2023/04/29 11:08:28;;;;;;;6.57;4.35;;;19.80;60.70;;;;;;4922075;29;20026;-86
2023/04/29 11:11:00;;;;;;;6.90;4.47;;;19.70;60.80;;;;;;4921916;29;20036;-87
2023/04/29 11:13:31;;;;;;;5.85;4.22;;;20.00;60.60;;;;;;4921973;29;20111;-88
2023/04/29 11:16:10;;;;;;;6.18;4.15;;;20.20;60.40;;;;;;4914752;29;20035;-87
2023/04/29 11:19:06;;;;;;;4.57;3.80;;;20.50;60.30;;;;;;4921780;29;20024;-86
2023/04/29 11:21:35;;;;;;;5.68;3.95;;;20.70;60.20;;;;;;4928525;29;20032;-91
2023/04/29 11:24:03;;;;;;;4.68;3.47;;;20.70;59.90;;;;;;4940799;29;20115;-86
2023/04/29 11:26:28;;;;;;;6.30;3.67;;;20.60;60.30;;;;;;4919853;29;20040;-81
2023/04/29 11:28:56;;;;;;;7.85;4.50;;;20.70;60.70;;;;;;4919646;29;20043;-83
2023/04/29 11:31:28;;;;;;;7.05;4.63;;;20.80;60.10;;;;;;4917521;29;20059;-78
2023/04/29 11:33:53;;;;;;;6.22;3.90;;;20.80;59.20;;;;;;4923280;29;20019;-88
2023/04/29 11:36:19;;;;;;;6.63;4.10;;;20.80;59.50;;;;;;4922901;29;20119;-83
2023/04/29 11:38:45;;;;;;;7.05;3.83;;;20.50;57.40;;;;;;4920895;29;20025;-86
2023/04/29 11:41:11;;;;;;;6.03;3.75;;;20.30;59.60;;;;;;4918414;29;20035;-82
2023/04/29 11:43:38;;;;;;;6.57;4.15;;;20.30;59.50;;;;;;4920162;29;20040;-80
2023/04/29 11:46:15;;;;;;;8.07;4.25;;;20.20;60.90;;;;;;4918485;29;20083;-84
2023/04/29 11:48:48;;;;;;;5.40;3.47;;;20.50;59.70;;;;;;4921497;29;20040;-84
2023/04/29 11:51:15;;;;;;;8.50;4.93;;;20.60;61.00;;;;;;4913430;29;20035;-84
2023/04/29 11:53:41;;;;;;;6.07;4.30;;;20.70;60.40;;;;;;4935347;29;20030;-84
2023/04/29 11:56:09;;;;;;;8.07;4.20;;;20.70;59.50;;;;;;4938762;29;20495;-83
2023/04/29 11:58:35;;;;;;;6.60;4.47;;;20.60;60.30;;;;;;4938235;29;20029;-83
2023/04/29 12:01:03;;;;;;;6.10;4.40;;;20.80;60.40;;;;;;4937100;29;20031;-84
2023/04/29 12:03:31;;;;;;;6.22;4.57;;;20.80;60.20;;;;;;4938335;29;20039;-84
2023/04/29 12:05:57;;;;;;;6.03;3.67;;;20.80;59.10;;;;;;4937984;29;20051;-84
2023/04/29 12:08:27;;;;;;;6.38;4.55;;;20.80;59.60;;;;;;4937753;29;20024;-85
2023/04/29 12:10:57;;;;;;;6.65;4.40;;;20.80;59.40;;;;;;4937503;29;20534;-83
2023/04/29 12:13:26;;;;;;;5.18;4.00;;;20.80;61.60;;;;;;4918936;29;20616;-84
2023/04/29 12:15:53;;;;;;;6.25;3.83;;;20.90;58.90;;;;;;4938038;29;20034;-84
2023/04/29 12:18:22;;;;;;;4.22;3.15;;;21.00;59.60;;;;;;4935724;29;20043;-82
2023/04/29 12:20:50;;;;;;;6.38;3.38;;;20.90;59.30;;;;;;4938228;29;20019;-82
2023/04/29 12:23:18;;;;;;;4.55;3.42;;;20.80;58.20;;;;;;4937202;29;20031;-83
2023/04/29 12:25:51;;;;;;;4.68;3.33;;;20.70;58.20;;;;;;4937660;29;20034;-83
2023/04/29 12:28:18;;;;;;;6.28;3.30;;;20.80;59.70;;;;;;4937763;29;20503;-83
2023/04/29 12:30:48;;;;;;;5.00;3.40;;;20.80;59.40;;;;;;4937369;29;20495;-81
2023/04/29 12:33:27;;;;;;;5.40;3.88;;;20.80;60.30;;;;;;4940374;29;20027;-79
2023/04/29 12:35:57;;;;;;;6.97;4.23;;;20.70;57.70;;;;;;4931071;29;20047;-82
2023/04/29 12:38:26;;;;;;;4.72;3.55;;;20.60;58.70;;;;;;4931168;29;20292;-82
2023/04/29 12:40:57;;;;;;;5.10;3.75;;;20.70;59.70;;;;;;4929562;29;20582;-83
2023/04/29 12:43:27;;;;;;;4.30;2.92;;;20.90;58.60;;;;;;4937518;29;20474;-83
2023/04/29 12:46:01;;;;;;;4.70;3.53;;;21.10;59.10;;;;;;4920800;29;20040;-84
2023/04/29 12:48:33;;;;;;;5.05;3.28;;;21.20;59.10;;;;;;4938894;29;20056;-84
2023/04/29 12:51:00;;;;;;;5.45;3.17;;;21.10;58.80;;;;;;4920068;29;20487;-84
2023/04/29 12:53:27;;;;;;;3.63;3.00;;;21.00;59.10;;;;;;4926843;29;20490;-84
2023/04/29 12:55:53;;;;;;;5.10;3.13;;;21.10;60.80;;;;;;4938116;29;20047;-83
2023/04/29 12:58:19;;;;;;;4.22;3.13;;;21.10;58.00;;;;;;4945849;29;20508;-84
2023/04/29 13:00:45;;;;;;;5.65;3.03;;;21.40;58.00;;;;;;4926793;29;20035;-84
2023/04/29 13:03:10;;;;;;;4.57;3.20;;;21.70;58.20;;;;;;4938133;29;20085;-85
2023/04/29 13:05:36;;;;;;;4.82;2.80;;;21.70;57.00;;;;;;4937032;29;20803;-85
2023/04/29 13:08:05;;;;;;;3.95;2.85;;;21.70;58.00;;;;;;4925297;29;20040;-84
2023/04/29 13:10:31;;;;;;;4.35;3.15;;;21.40;57.10;;;;;;4915307;29;20444;-84
2023/04/29 13:12:57;;;;;;;4.70;3.30;;;21.10;56.90;;;;;;4932799;29;20082;-84
2023/04/29 13:15:24;;;;;;;3.75;2.75;;;21.00;57.50;;;;;;4919348;29;20024;-84
2023/04/29 13:17:50;;;;;;;3.42;2.75;;;21.00;58.30;;;;;;4938024;29;20036;-84
2023/04/29 13:20:16;;;;;;;4.97;3.58;;;21.00;59.20;;;;;;4942144;29;20479;-85
2023/04/29 13:22:43;;;;;;;4.15;2.72;;;21.10;56.30;;;;;;4957709;29;20054;-85
2023/04/29 13:25:10;;;;;;;4.80;2.45;;;21.20;57.50;;;;;;4934581;29;20025;-85
2023/04/29 13:27:37;;;;;;;4.18;2.20;;;21.20;57.60;;;;;;4917784;29;20075;-84
2023/04/29 13:30:06;;;;;;;4.00;2.65;;;21.00;58.30;;;;;;4919205;29;20095;-85
2023/04/29 13:32:32;;;;;;;4.22;2.80;;;21.00;58.60;;;;;;4919593;29;20099;-85
2023/04/29 13:34:57;;;;;;;4.30;2.88;;;21.00;58.40;;;;;;4935142;29;20043;-85
2023/04/29 13:37:23;;;;;;;3.47;3.17;;;20.80;57.70;;;;;;4937963;29;20050;-82
2023/04/29 13:39:49;;;;;;;2.40;2.00;;;20.70;57.10;;;;;;4920526;29;20036;-84
2023/04/29 13:42:14;;;;;;;3.28;2.80;;;20.80;58.10;;;;;;4937879;29;20028;-83
2023/04/29 13:44:43;;;;;;;6.07;2.92;;;20.80;56.70;;;;;;4918253;29;20028;-85
2023/04/29 13:47:15;;;;;;;4.85;2.30;;;20.80;57.60;;;;;;4917614;29;20032;-84
2023/04/29 13:49:45;;;;;;;2.95;2.42;;;20.90;57.40;;;;;;4918894;29;20024;-84
2023/04/29 13:52:11;;;;;;;4.22;2.65;;;21.00;57.00;;;;;;4918081;29;20052;-84
2023/04/29 13:54:37;;;;;;;3.47;2.78;;;21.10;56.70;;;;;;4917827;29;20032;-84
2023/04/29 13:57:04;;;;;;;3.97;3.10;;;21.30;57.10;;;;;;4902317;29;20039;-84
2023/04/29 13:59:33;;;;;;;4.05;2.63;;;21.30;56.70;;;;;;4918308;29;20076;-84
2023/04/29 14:01:59;;;;;;;3.23;2.13;;;21.40;58.10;;;;;;4918648;29;20048;-83
2023/04/29 14:04:26;;;;;;;3.80;2.35;;;21.20;57.00;;;;;;4911849;29;20038;-85
2023/04/29 14:06:53;;;;;;;3.95;2.90;;;21.30;57.60;;;;;;4918920;29;20039;-85
2023/04/29 14:09:19;;;;;;;4.85;2.75;;;21.70;57.60;;;;;;4918152;29;20028;-84
2023/04/29 14:11:48;;;;;;;6.03;3.05;;;21.60;57.40;;;;;;4936897;29;20028;-84
2023/04/29 14:14:15;;;;;;;3.30;2.10;;;21.60;56.90;;;;;;4929566;29;20866;-81
2023/04/29 14:16:41;;;;;;;4.30;2.47;;;21.70;58.70;;;;;;4922307;29;20036;-88
2023/04/29 14:19:07;;;;;;;3.15;2.50;;;21.60;55.80;;;;;;4915271;29;20029;-84
2023/04/29 14:21:33;;;;;;;3.95;2.72;;;21.50;55.90;;;;;;4943261;29;20083;-83
2023/04/29 14:24:01;;;;;;;4.20;2.05;;;21.50;54.40;;;;;;4928993;29;20015;-84
2023/04/29 14:26:27;;;;;;;2.38;2.08;;;21.50;53.80;;;;;;4924911;29;20059;-85
2023/04/29 14:29:00;;;;;;;3.67;2.35;;;21.70;55.10;;;;;;4941874;29;20775;-86
2023/04/29 14:31:29;;;;;;;2.90;2.15;;;21.60;54.50;;;;;;4925633;29;20139;-85
2023/04/29 14:33:58;;;;;;;3.08;2.20;;;21.50;56.80;;;;;;4916904;29;20095;-85
2023/04/29 14:36:25;;;;;;;4.53;2.05;;;21.30;57.20;;;;;;4924160;29;20047;-85
2023/04/29 14:38:51;;;;;;;3.42;2.30;;;21.20;57.30;;;;;;4929642;29;20028;-88
2023/04/29 14:41:17;;;;;;;4.15;2.22;;;21.20;57.50;;;;;;4921827;29;20039;-85
2023/04/29 14:43:43;;;;;;;4.07;2.40;;;21.20;56.30;;;;;;4952822;29;20043;-84
2023/04/29 14:46:09;;;;;;;2.70;1.98;;;21.00;54.50;;;;;;4947530;29;20476;-85
2023/04/29 14:48:35;;;;;;;4.22;2.13;;;21.10;55.90;;;;;;4921769;29;20040;-84
2023/04/29 14:51:00;;;;;;;3.58;2.00;;;21.20;54.50;;;;;;4922396;29;20040;-86
2023/04/29 14:53:26;;;;;;;3.35;2.55;;;21.30;55.80;;;;;;4959119;29;20567;-84
2023/04/29 14:55:52;;;;;;;3.63;2.30;;;21.30;55.40;;;;;;4960498;29;20434;-85
2023/04/29 14:58:17;;;;;;;4.50;2.80;;;21.20;56.30;;;;;;4932651;29;20071;-85
2023/04/29 15:00:43;;;;;;;3.88;2.20;;;20.90;56.20;;;;;;4904738;29;20028;-86
2023/04/29 15:03:09;;;;;;;2.65;2.10;;;20.80;55.90;;;;;;4923891;29;20024;-85
2023/04/29 15:05:35;;;;;;;4.18;2.67;;;20.70;58.00;;;;;;4923810;29;20111;-86
2023/04/29 15:08:01;;;;;;;2.47;1.85;;;20.90;58.30;;;;;;4904129;29;20028;-85
2023/04/29 15:10:29;;;;;;;2.40;2.08;;;20.80;56.40;;;;;;4922274;29;20063;-84
2023/04/29 15:12:55;;;;;;;2.45;1.80;;;20.80;56.10;;;;;;4940784;29;20403;-85
2023/04/29 15:15:22;;;;;;;3.38;1.98;;;21.10;57.30;;;;;;4934492;29;20167;-85
2023/04/29 15:17:47;;;;;;;3.53;2.42;;;21.20;57.10;;;;;;4921208;29;20488;-85
2023/04/29 15:20:13;;;;;;;3.40;2.30;;;21.20;55.10;;;;;;4921325;29;20055;-85
2023/04/29 15:22:39;;;;;;;2.63;1.92;;;21.20;55.50;;;;;;4921261;29;20494;-85
2023/04/29 15:25:06;;;;;;;3.45;2.38;;;21.00;56.40;;;;;;4921111;29;20028;-85
2023/04/29 15:27:33;;;;;;;3.35;1.83;;;21.20;55.90;;;;;;4905609;29;20044;-85
2023/04/29 15:29:59;;;;;;;3.42;2.40;;;21.30;56.60;;;;;;4904578;29;20554;-84
2023/04/29 15:32:30;;;;;;;2.80;2.22;;;21.30;55.70;;;;;;4921128;29;20060;-83
2023/04/29 15:34:56;;;;;;;3.38;2.20;;;21.20;55.30;;;;;;4939385;29;20024;-84
2023/04/29 15:37:21;;;;;;;5.35;2.20;;;21.30;56.00;;;;;;4936238;29;20142;-84
2023/04/29 15:39:47;;;;;;;3.22;2.60;;;21.40;56.10;;;;;;4921236;29;20032;-83
2023/04/29 15:42:13;;;;;;;4.40;2.38;;;21.30;54.80;;;;;;4921103;29;20028;-84
2023/04/29 15:44:38;;;;;;;2.85;2.25;;;21.40;56.20;;;;;;4921050;29;20020;-84
2023/04/29 15:47:04;;;;;;;4.90;2.85;;;21.50;56.00;;;;;;4920329;29;20043;-88
2023/04/29 15:49:30;;;;;;;2.35;2.15;;;21.40;55.00;;;;;;4919845;29;20016;-82
2023/04/29 15:51:56;;;;;;;2.28;1.80;;;21.30;56.60;;;;;;4919710;29;20566;-81
2023/04/29 15:54:22;;;;;;;3.25;1.90;;;21.30;56.60;;;;;;4938324;29;20039;-85
2023/04/29 15:56:49;;;;;;;2.45;2.20;;;21.30;56.80;;;;;;4939778;29;20043;-84
2023/04/29 15:59:15;;;;;;;2.50;2.08;;;21.40;55.60;;;;;;4919043;29;20070;-79
2023/04/29 16:01:41;;;;;;;2.00;1.50;;;21.40;55.50;;;;;;4930671;29;20056;-88
2023/04/29 16:04:06;;;;;;;2.53;1.70;;;21.50;55.30;;;;;;4928702;29;20084;-91
2023/04/29 16:06:32;;;;;;;3.33;1.95;;;21.40;54.20;;;;;;4903937;29;20036;-88
2023/04/29 16:08:59;;;;;;;3.60;1.85;;;21.60;55.40;;;;;;4920668;29;20563;-79
2023/04/29 16:11:25;;;;;;;2.58;1.95;;;21.80;54.80;;;;;;4922304;29;20043;-83
2023/04/29 16:13:57;;;;;;;2.30;1.80;;;21.80;53.50;;;;;;4923876;29;20398;-82
2023/04/29 16:16:23;;;;;;;2.42;1.60;;;21.80;53.80;;;;;;4958762;29;20495;-87
2023/04/29 16:18:49;;;;;;;2.50;1.60;;;21.70;52.80;;;;;;4930849;29;20152;-87
2023/04/29 16:21:16;;;;;;;2.35;1.60;;;21.60;54.60;;;;;;4938929;29;20051;-84
2023/04/29 16:23:42;;;;;;;2.08;1.70;;;21.60;55.00;;;;;;4939299;29;20020;-86
2023/04/29 16:26:07;;;;;;;3.38;1.70;;;21.50;53.10;;;;;;4919353;29;20034;-84
2023/04/29 16:28:48;;;;;;;2.47;1.40;;;21.40;54.10;;;;;;4948842;29;20027;-90
2023/04/29 16:31:14;;;;;;;3.10;1.70;;;21.40;54.70;;;;;;4956588;29;20082;-82
2023/04/29 16:33:40;;;;;;;2.55;1.35;;;21.30;54.60;;;;;;4945345;28;20038;-76
2023/04/29 16:36:06;;;;;;;2.47;1.60;;;21.30;54.30;;;;;;4931532;29;20028;-77
2023/04/29 16:38:32;;;;;;;3.75;1.67;;;21.30;54.20;;;;;;4919660;29;20031;-77
2023/04/29 16:40:57;;;;;;;4.07;2.53;;;21.20;54.80;;;;;;4919505;29;20129;-87
2023/04/29 16:43:26;;;;;;;3.72;1.92;;;21.10;55.50;;;;;;4903234;29;20373;-86
2023/04/29 16:45:51;;;;;;;3.17;1.95;;;21.10;56.10;;;;;;4926974;29;20095;-87
2023/04/29 16:48:17;;;;;;;2.33;1.67;;;20.90;56.80;;;;;;4947846;29;20040;-87
2023/04/29 16:50:47;;;;;;;3.17;2.00;;;20.90;56.50;;;;;;4918495;29;20122;-88
2023/04/29 16:53:13;;;;;;;3.42;2.00;;;20.90;56.70;;;;;;4937427;29;20176;-90
2023/04/29 16:55:44;;;;;;;3.03;2.20;;;20.90;57.40;;;;;;4922267;29;20080;-88
2023/04/29 16:58:10;;;;;;;3.10;2.05;;;20.90;57.40;;;;;;4941351;29;20028;-77
2023/04/29 17:00:36;;;;;;;3.97;1.90;;;20.90;57.30;;;;;;4938919;29;20119;-87
2023/04/29 17:03:04;;;;;;;2.63;2.03;;;20.80;56.80;;;;;;4921648;29;20111;-88
2023/04/29 17:05:31;;;;;;;3.58;1.90;;;20.80;57.00;;;;;;4941480;29;20059;-85
2023/04/29 17:07:57;;;;;;;3.33;2.15;;;20.80;56.90;;;;;;4936594;29;20032;-86
2023/04/29 17:10:23;;;;;;;2.92;2.05;;;20.80;56.90;;;;;;4933434;29;20032;-87
2023/04/29 17:12:49;;;;;;;2.35;2.03;;;20.80;57.20;;;;;;4921544;29;20039;-87
2023/04/29 17:15:15;;;;;;;3.33;2.33;;;20.70;57.30;;;;;;4920646;29;20446;-86
2023/04/29 17:17:41;;;;;;;3.45;2.00;;;20.60;57.20;;;;;;4920432;29;20028;-87